Time;durP1;ratioP1;P1;durP2;ratioP2;P2;SDS_P1;SDS_P2;PMS_P1;PMS_P2;Temp;Humidity;BMP_temperature;BMP_pressure;BME280_temperature;BME280_humidity;BME280_pressure;Samples;Min_cycle;Max_cycle;Signal;HPM_P1;HPM_P2
2021/09/29 00:01:33;;;;;;;7.45;4.30;;;14.00;91.00;;;;;;4858957;29;20063;-69
2021/09/29 00:03:59;;;;;;;5.97;4.05;;;13.90;90.70;;;;;;4853834;29;20034;-69
2021/09/29 00:06:25;;;;;;;8.10;4.05;;;13.90;90.80;;;;;;4856358;29;20041;-69
2021/09/29 00:08:51;;;;;;;6.22;4.40;;;13.90;90.60;;;;;;4863917;29;20025;-69
2021/09/29 00:11:16;;;;;;;7.60;3.80;;;13.80;90.70;;;;;;4858797;29;20064;-68
2021/09/29 00:13:42;;;;;;;6.55;4.50;;;13.80;90.70;;;;;;4861618;29;20067;-69
2021/09/29 00:16:08;;;;;;;6.75;4.35;;;13.80;91.00;;;;;;4862046;29;20156;-68
2021/09/29 00:18:33;;;;;;;7.90;4.15;;;13.80;91.00;;;;;;4851136;29;20056;-69
2021/09/29 00:20:59;;;;;;;8.90;3.97;;;13.70;90.70;;;;;;4849660;29;20049;-68
2021/09/29 00:23:25;;;;;;;5.63;4.07;;;13.70;90.40;;;;;;4859461;29;20048;-69
2021/09/29 00:25:50;;;;;;;8.80;4.40;;;13.70;90.40;;;;;;4861932;29;20121;-68
2021/09/29 00:28:16;;;;;;;7.45;4.50;;;13.70;90.60;;;;;;4857356;29;20089;-68
2021/09/29 00:31:01;;;;;;;5.53;4.32;;;13.70;90.80;;;;;;4857614;29;20041;-69
2021/09/29 00:33:27;;;;;;;7.90;4.40;;;13.70;91.00;;;;;;4862047;29;20075;-68
2021/09/29 00:35:52;;;;;;;9.35;4.63;;;13.70;91.20;;;;;;4854449;29;20148;-68
2021/09/29 00:38:18;;;;;;;8.48;5.38;;;13.70;91.00;;;;;;4849936;29;20529;-69
2021/09/29 00:40:44;;;;;;;10.40;5.93;;;13.70;91.10;;;;;;4861858;29;20134;-68
2021/09/29 00:43:10;;;;;;;14.65;7.40;;;13.70;91.20;;;;;;4851238;29;20033;-69
2021/09/29 00:45:35;;;;;;;9.30;6.10;;;13.70;91.80;;;;;;4853337;29;20033;-69
2021/09/29 00:48:01;;;;;;;7.53;4.57;;;13.70;91.80;;;;;;4859847;29;20071;-68
2021/09/29 00:50:27;;;;;;;6.82;4.93;;;13.70;91.70;;;;;;4856747;29;20045;-69
2021/09/29 00:52:55;;;;;;;8.25;4.47;;;13.70;91.90;;;;;;4861500;29;20044;-69
2021/09/29 00:55:21;;;;;;;5.45;4.07;;;13.70;91.30;;;;;;4855541;29;20045;-69
2021/09/29 00:57:46;;;;;;;11.20;4.88;;;13.60;91.10;;;;;;4849369;29;20030;-68
2021/09/29 01:00:13;;;;;;;7.53;4.35;;;13.60;90.90;;;;;;4847012;29;20038;-68
2021/09/29 01:02:38;;;;;;;9.25;5.03;;;13.60;90.80;;;;;;4849583;29;20044;-69
2021/09/29 01:05:05;;;;;;;6.55;4.35;;;13.50;90.80;;;;;;4851798;29;20061;-69
2021/09/29 01:07:51;;;;;;;8.57;5.47;;;13.50;91.00;;;;;;4853231;29;20045;-68
2021/09/29 01:10:29;;;;;;;9.85;5.32;;;13.50;91.30;;;;;;4858024;29;20049;-69
2021/09/29 01:13:05;;;;;;;7.68;5.35;;;13.50;91.40;;;;;;4861321;29;20144;-68
2021/09/29 01:15:39;;;;;;;7.30;5.07;;;13.40;91.50;;;;;;4862391;29;20057;-68
2021/09/29 01:18:09;;;;;;;12.23;6.57;;;13.40;91.60;;;;;;4852109;29;20406;-68
2021/09/29 01:20:47;;;;;;;14.68;7.45;;;13.50;91.60;;;;;;4852113;29;20761;-68
2021/09/29 01:23:19;;;;;;;11.65;7.30;;;13.50;91.70;;;;;;4849104;29;20533;-68
2021/09/29 01:25:56;;;;;;;14.90;7.07;;;13.60;91.70;;;;;;4850851;29;20069;-68
2021/09/29 01:28:33;;;;;;;10.82;6.55;;;13.60;91.60;;;;;;4853730;29;20038;-69
2021/09/29 01:31:00;;;;;;;11.70;7.65;;;13.60;91.60;;;;;;4860677;29;20824;-68
2021/09/29 01:33:30;;;;;;;12.98;7.57;;;13.60;91.60;;;;;;4858842;29;20088;-68
2021/09/29 01:35:56;;;;;;;12.02;7.95;;;13.70;91.60;;;;;;4858454;29;20057;-68
2021/09/29 01:38:22;;;;;;;11.85;8.50;;;13.70;91.60;;;;;;4862284;29;20071;-69
2021/09/29 01:40:48;;;;;;;9.90;7.13;;;13.70;91.50;;;;;;4864801;29;20556;-69
2021/09/29 01:43:14;;;;;;;9.75;6.95;;;13.70;91.70;;;;;;4866250;29;20565;-68
2021/09/29 01:45:43;;;;;;;9.85;7.07;;;13.70;91.70;;;;;;4863473;29;20127;-68
2021/09/29 01:48:09;;;;;;;9.90;6.70;;;13.70;92.00;;;;;;4861180;29;20091;-69
2021/09/29 01:50:36;;;;;;;9.38;7.25;;;13.70;92.00;;;;;;4859479;29;20596;-69
2021/09/29 01:53:03;;;;;;;11.75;7.68;;;13.70;91.90;;;;;;4860237;29;20032;-69
2021/09/29 01:55:30;;;;;;;10.80;7.15;;;13.70;91.80;;;;;;4859022;29;20128;-69
2021/09/29 01:57:56;;;;;;;9.68;7.80;;;13.70;91.70;;;;;;4859492;29;20089;-69
2021/09/29 02:00:25;;;;;;;10.10;7.30;;;13.70;91.60;;;;;;4877503;29;20093;-68
2021/09/29 02:02:59;;;;;;;9.18;7.18;;;13.70;91.50;;;;;;4865456;29;20033;-69
2021/09/29 02:05:30;;;;;;;9.93;7.30;;;13.70;91.60;;;;;;4864740;29;20033;-69
2021/09/29 02:07:57;;;;;;;11.90;7.75;;;13.70;91.80;;;;;;4862135;29;20750;-68
2021/09/29 02:10:23;;;;;;;10.88;7.63;;;13.70;91.90;;;;;;4857569;29;20871;-68
2021/09/29 02:12:49;;;;;;;11.75;7.57;;;13.70;91.90;;;;;;4858463;29;20045;-68
2021/09/29 02:15:15;;;;;;;11.07;7.63;;;13.70;92.00;;;;;;4855225;29;20036;-69
2021/09/29 02:17:40;;;;;;;9.48;7.13;;;13.70;92.00;;;;;;4853164;29;20736;-68
2021/09/29 02:20:07;;;;;;;10.65;7.68;;;13.70;91.90;;;;;;4851430;29;20038;-69
2021/09/29 02:22:32;;;;;;;13.13;8.48;;;13.70;91.90;;;;;;4848433;29;20493;-69
2021/09/29 02:24:58;;;;;;;10.90;8.23;;;13.70;91.90;;;;;;4848058;29;20033;-68
2021/09/29 02:27:24;;;;;;;11.38;7.28;;;13.80;92.00;;;;;;4852095;29;20033;-68
2021/09/29 02:29:50;;;;;;;8.02;6.40;;;13.80;92.00;;;;;;4860230;29;20148;-69
2021/09/29 02:32:15;;;;;;;9.52;7.65;;;13.80;92.00;;;;;;4856845;29;20073;-69
2021/09/29 02:34:41;;;;;;;11.13;8.18;;;13.70;91.80;;;;;;4855997;29;20037;-69
2021/09/29 02:37:07;;;;;;;10.45;8.05;;;13.80;91.90;;;;;;4854363;29;20056;-69
2021/09/29 02:39:33;;;;;;;12.57;8.73;;;13.80;91.80;;;;;;4853915;29;20230;-69
2021/09/29 02:41:59;;;;;;;11.40;7.18;;;13.80;91.70;;;;;;4861302;29;20048;-69
2021/09/29 02:44:25;;;;;;;13.48;7.85;;;13.70;91.60;;;;;;4864501;29;20029;-69
2021/09/29 02:46:50;;;;;;;8.90;7.10;;;13.70;91.80;;;;;;4862740;29;20525;-69
2021/09/29 02:49:16;;;;;;;9.55;7.40;;;13.70;91.90;;;;;;4854355;29;20190;-69
2021/09/29 02:51:42;;;;;;;10.13;7.55;;;13.70;92.00;;;;;;4859150;29;20051;-68
2021/09/29 02:54:08;;;;;;;12.00;8.48;;;13.80;92.00;;;;;;4855248;29;20039;-68
2021/09/29 02:56:34;;;;;;;12.98;7.85;;;13.80;91.90;;;;;;4856899;29;20124;-69
2021/09/29 02:59:00;;;;;;;9.95;7.72;;;13.80;91.90;;;;;;4857245;29;20051;-69
2021/09/29 03:01:26;;;;;;;10.00;7.75;;;13.90;92.00;;;;;;4863384;29;20037;-69
2021/09/29 03:03:51;;;;;;;10.50;7.50;;;13.90;91.90;;;;;;4863255;29;20037;-68
2021/09/29 03:06:17;;;;;;;11.60;7.50;;;14.00;92.00;;;;;;4864876;29;20554;-68
2021/09/29 03:08:43;;;;;;;11.63;7.22;;;14.00;91.90;;;;;;4852077;29;20037;-69
2021/09/29 03:11:10;;;;;;;11.80;7.85;;;14.10;91.80;;;;;;4858656;29;20044;-68
2021/09/29 03:13:36;;;;;;;9.30;7.03;;;14.10;91.90;;;;;;4857518;29;20455;-68
2021/09/29 03:16:02;;;;;;;11.10;6.90;;;14.10;91.80;;;;;;4858847;29;20037;-69
2021/09/29 03:18:27;;;;;;;11.23;7.57;;;14.20;91.90;;;;;;4860288;29;20088;-69
2021/09/29 03:20:53;;;;;;;10.68;7.13;;;14.30;91.80;;;;;;4862691;29;20033;-69
2021/09/29 03:23:19;;;;;;;7.82;6.10;;;14.30;91.90;;;;;;4864684;29;20047;-68
2021/09/29 03:25:45;;;;;;;9.02;6.72;;;14.40;91.70;;;;;;4859390;29;20085;-68
2021/09/29 03:28:11;;;;;;;8.52;6.55;;;14.40;91.70;;;;;;4851268;29;20830;-68
2021/09/29 03:30:37;;;;;;;8.80;6.68;;;14.40;91.70;;;;;;4857313;29;20049;-69
2021/09/29 03:33:06;;;;;;;9.80;5.93;;;14.50;91.80;;;;;;4855060;29;20577;-69
2021/09/29 03:35:33;;;;;;;8.73;5.75;;;14.50;91.80;;;;;;4857686;29;20482;-68
2021/09/29 03:37:59;;;;;;;10.15;6.80;;;14.50;91.60;;;;;;4866436;29;20043;-69
2021/09/29 03:40:25;;;;;;;9.20;6.68;;;14.60;91.60;;;;;;4856827;29;20498;-68
2021/09/29 03:42:50;;;;;;;9.23;7.18;;;14.50;91.60;;;;;;4853788;29;20044;-69
2021/09/29 03:45:16;;;;;;;10.18;6.72;;;14.50;91.70;;;;;;4862452;29;20033;-68
2021/09/29 03:47:43;;;;;;;7.97;6.13;;;14.50;91.70;;;;;;4850684;29;20869;-68
2021/09/29 03:50:10;;;;;;;8.68;6.03;;;14.50;91.70;;;;;;4851207;29;20033;-69
2021/09/29 03:52:35;;;;;;;9.23;5.90;;;14.40;91.60;;;;;;4853526;29;20045;-69
2021/09/29 03:55:02;;;;;;;9.98;6.00;;;14.40;91.50;;;;;;4855435;29;20048;-69
2021/09/29 03:57:28;;;;;;;8.50;6.25;;;14.30;91.60;;;;;;4857576;29;20762;-69
2021/09/29 03:59:53;;;;;;;8.00;5.95;;;14.40;91.50;;;;;;4859313;29;20041;-69
2021/09/29 04:02:19;;;;;;;9.90;6.20;;;14.30;91.50;;;;;;4861249;29;20124;-69
2021/09/29 04:04:45;;;;;;;9.35;6.40;;;14.30;91.50;;;;;;4862554;29;20064;-68
2021/09/29 04:07:11;;;;;;;8.65;6.15;;;14.30;91.60;;;;;;4857627;29;20033;-69
2021/09/29 04:09:37;;;;;;;8.88;6.57;;;14.30;91.70;;;;;;4868232;29;20102;-69
2021/09/29 04:12:03;;;;;;;8.57;6.45;;;14.40;91.60;;;;;;4863518;29;20045;-69
2021/09/29 04:14:29;;;;;;;9.23;6.90;;;14.40;91.70;;;;;;4865564;29;20045;-69
2021/09/29 04:16:55;;;;;;;10.48;7.60;;;14.50;91.70;;;;;;4865299;29;20037;-68
2021/09/29 04:19:20;;;;;;;14.40;9.00;;;14.50;91.80;;;;;;4857950;29;20072;-69
2021/09/29 04:21:46;;;;;;;14.90;8.48;;;14.60;92.10;;;;;;4864969;29;20401;-69
2021/09/29 04:24:12;;;;;;;14.40;8.70;;;14.60;92.00;;;;;;4860829;29;20041;-68
2021/09/29 04:26:39;;;;;;;19.52;10.98;;;14.60;92.00;;;;;;4853169;29;20033;-69
2021/09/29 04:29:05;;;;;;;18.95;11.60;;;14.60;92.20;;;;;;4867322;29;20087;-68
2021/09/29 04:31:31;;;;;;;20.48;11.23;;;14.70;92.10;;;;;;4867036;29;20036;-69
2021/09/29 04:33:57;;;;;;;21.17;11.80;;;14.80;92.10;;;;;;4853081;29;20542;-68
2021/09/29 04:36:23;;;;;;;20.58;11.10;;;14.70;92.10;;;;;;4854929;29;20041;-69
2021/09/29 04:38:49;;;;;;;25.35;13.20;;;14.80;92.20;;;;;;4865144;29;20037;-69
2021/09/29 04:41:14;;;;;;;34.00;12.85;;;14.80;92.20;;;;;;4861539;29;20041;-68
2021/09/29 04:43:40;;;;;;;22.23;11.15;;;14.90;92.10;;;;;;4859903;29;20037;-69
2021/09/29 04:46:06;;;;;;;25.35;12.73;;;14.90;92.10;;;;;;4865647;29;20032;-69
2021/09/29 04:48:32;;;;;;;20.65;10.48;;;14.90;92.20;;;;;;4864209;29;20497;-69
2021/09/29 04:50:57;;;;;;;24.05;11.98;;;14.90;92.20;;;;;;4851926;29;20145;-68
2021/09/29 04:53:23;;;;;;;32.28;13.95;;;15.00;92.20;;;;;;4862971;29;20041;-69
2021/09/29 04:55:49;;;;;;;29.58;14.13;;;15.10;92.00;;;;;;4861970;29;20454;-69
2021/09/29 04:58:14;;;;;;;27.20;13.48;;;15.10;92.00;;;;;;4865733;29;20128;-69
2021/09/29 05:00:40;;;;;;;26.90;13.68;;;15.10;91.90;;;;;;4868274;29;20041;-69
2021/09/29 05:03:10;;;;;;;25.33;13.13;;;15.10;92.00;;;;;;4860352;29;20064;-69
2021/09/29 05:05:36;;;;;;;27.10;12.73;;;15.20;92.00;;;;;;4868250;29;20212;-69
2021/09/29 05:08:06;;;;;;;28.05;13.13;;;15.20;92.00;;;;;;4864559;29;20045;-69
2021/09/29 05:10:52;;;;;;;31.90;13.90;;;15.20;92.00;;;;;;4865436;29;20144;-69
2021/09/29 05:13:27;;;;;;;34.03;14.68;;;15.20;92.00;;;;;;4865029;29;20290;-69
2021/09/29 05:15:53;;;;;;;36.65;15.68;;;15.20;92.10;;;;;;4855496;29;20426;-68
2021/09/29 05:18:19;;;;;;;37.70;16.30;;;15.20;92.10;;;;;;4866194;29;20367;-69
2021/09/29 05:20:46;;;;;;;34.42;15.00;;;15.20;92.10;;;;;;4870106;29;20045;-69
2021/09/29 05:23:12;;;;;;;33.25;14.98;;;15.30;92.00;;;;;;4859962;29;20069;-69
2021/09/29 05:25:38;;;;;;;30.15;14.10;;;15.30;91.90;;;;;;4858715;29;20033;-69
2021/09/29 05:28:06;;;;;;;35.83;14.52;;;15.40;92.00;;;;;;4863466;29;20702;-69
2021/09/29 05:30:32;;;;;;;37.25;15.38;;;15.40;91.90;;;;;;4865644;29;20036;-69
2021/09/29 05:32:58;;;;;;;43.75;16.25;;;15.50;91.90;;;;;;4863387;29;20398;-68
2021/09/29 05:35:24;;;;;;;49.03;17.02;;;15.50;91.90;;;;;;4858341;29;20033;-69
2021/09/29 05:37:50;;;;;;;37.97;16.08;;;15.50;91.70;;;;;;4862338;29;20028;-69
2021/09/29 05:40:15;;;;;;;46.25;17.38;;;15.50;91.80;;;;;;4861682;29;20033;-68
2021/09/29 05:42:41;;;;;;;38.72;16.30;;;15.60;91.80;;;;;;4864625;29;20076;-69
2021/09/29 05:45:07;;;;;;;42.17;16.73;;;15.60;91.80;;;;;;4862197;29;20669;-69
2021/09/29 05:47:33;;;;;;;39.13;16.40;;;15.60;91.80;;;;;;4868072;29;20044;-72
2021/09/29 05:49:59;;;;;;;39.15;16.65;;;15.60;91.80;;;;;;4863077;29;20029;-70
2021/09/29 05:52:24;;;;;;;42.65;17.05;;;15.70;91.70;;;;;;4865424;29;20749;-70
2021/09/29 05:54:50;;;;;;;37.42;16.23;;;15.70;91.70;;;;;;4866245;29;20040;-69
2021/09/29 05:57:16;;;;;;;34.00;15.98;;;15.70;91.70;;;;;;4867571;29;20511;-70
2021/09/29 05:59:42;;;;;;;30.48;14.93;;;15.80;91.70;;;;;;4864604;29;20249;-70
2021/09/29 06:02:08;;;;;;;32.22;14.82;;;15.90;91.70;;;;;;4864111;29;20809;-70
2021/09/29 06:04:34;;;;;;;39.10;16.35;;;15.90;91.60;;;;;;4863715;29;20118;-69
2021/09/29 06:07:00;;;;;;;29.67;14.57;;;15.90;91.50;;;;;;4861155;29;20030;-70
2021/09/29 06:09:26;;;;;;;32.13;15.70;;;15.90;91.50;;;;;;4870596;29;20532;-71
2021/09/29 06:11:51;;;;;;;37.55;16.60;;;15.90;91.30;;;;;;4865482;29;20037;-70
2021/09/29 06:14:18;;;;;;;32.33;14.85;;;16.00;91.40;;;;;;4864950;29;20569;-70
2021/09/29 06:16:45;;;;;;;33.92;15.77;;;16.00;91.40;;;;;;4876754;29;20036;-72
2021/09/29 06:19:14;;;;;;;29.95;14.65;;;16.00;91.50;;;;;;4860472;29;20165;-69
2021/09/29 06:21:41;;;;;;;37.20;16.10;;;16.00;91.40;;;;;;4861851;29;20132;-69
2021/09/29 06:24:06;;;;;;;33.47;15.77;;;16.00;91.30;;;;;;4860599;29;20406;-69
2021/09/29 06:26:32;;;;;;;39.08;16.58;;;16.10;91.30;;;;;;4860195;29;20056;-69
2021/09/29 06:28:58;;;;;;;35.97;16.23;;;16.10;91.10;;;;;;4857513;29;20089;-69
2021/09/29 06:31:24;;;;;;;35.38;17.55;;;16.00;91.20;;;;;;4858803;29;20056;-69
2021/09/29 06:33:50;;;;;;;38.45;15.98;;;16.00;91.30;;;;;;4866386;29;20036;-69
2021/09/29 06:36:16;;;;;;;29.08;15.23;;;16.10;91.40;;;;;;4862232;29;20421;-69
2021/09/29 06:38:42;;;;;;;40.53;17.92;;;16.10;91.40;;;;;;4861023;29;20116;-69
2021/09/29 06:41:08;;;;;;;36.00;16.67;;;16.00;91.50;;;;;;4867342;29;20051;-69
2021/09/29 06:43:33;;;;;;;42.75;18.25;;;16.00;91.70;;;;;;4866907;29;20051;-69
2021/09/29 06:45:59;;;;;;;31.55;15.60;;;16.10;91.60;;;;;;4859321;29;20033;-69
2021/09/29 06:48:25;;;;;;;35.20;18.20;;;16.20;91.50;;;;;;4863951;29;20044;-70
2021/09/29 06:50:51;;;;;;;34.03;16.48;;;16.30;91.50;;;;;;4870494;29;20039;-70
2021/09/29 06:53:21;;;;;;;34.22;15.82;;;16.30;91.40;;;;;;4870569;29;20031;-69
2021/09/29 06:55:50;;;;;;;38.58;17.15;;;16.40;91.40;;;;;;4868455;29;20033;-69
2021/09/29 06:58:17;;;;;;;39.08;19.40;;;16.40;91.20;;;;;;4863064;29;20033;-75
2021/09/29 07:00:43;;;;;;;36.10;16.50;;;16.50;91.20;;;;;;4862950;29;20037;-69
2021/09/29 07:03:09;;;;;;;30.00;15.32;;;16.40;91.20;;;;;;4857351;29;20045;-70
2021/09/29 07:05:35;;;;;;;42.85;20.33;;;16.50;91.30;;;;;;4864787;29;20111;-71
2021/09/29 07:08:01;;;;;;;38.88;18.35;;;16.50;90.90;;;;;;4867258;29;20100;-70
2021/09/29 07:10:29;;;;;;;36.80;18.17;;;16.50;90.90;;;;;;4862480;29;20052;-69
2021/09/29 07:12:57;;;;;;;37.78;17.15;;;16.50;91.00;;;;;;4868730;29;20033;-70
2021/09/29 07:15:24;;;;;;;38.47;17.98;;;16.60;91.00;;;;;;4870190;29;20079;-70
2021/09/29 07:17:56;;;;;;;38.95;18.23;;;16.60;91.40;;;;;;4864015;29;20092;-70
2021/09/29 07:20:22;;;;;;;32.25;16.27;;;16.60;91.20;;;;;;4868315;29;20076;-69
2021/09/29 07:22:47;;;;;;;35.97;17.75;;;16.70;91.10;;;;;;4863672;29;20128;-69
2021/09/29 07:25:13;;;;;;;36.08;17.63;;;16.70;91.20;;;;;;4860224;29;20032;-69
2021/09/29 07:27:39;;;;;;;37.78;18.13;;;16.70;91.10;;;;;;4864564;29;20105;-69
2021/09/29 07:30:06;;;;;;;42.22;19.50;;;16.80;91.10;;;;;;4862943;29;20033;-69
2021/09/29 07:32:33;;;;;;;36.80;17.80;;;16.80;91.40;;;;;;4863769;29;20413;-69
2021/09/29 07:34:59;;;;;;;36.70;19.65;;;16.80;91.10;;;;;;4863381;29;20048;-71
2021/09/29 07:37:25;;;;;;;37.03;17.73;;;16.80;91.10;;;;;;4862958;29;20033;-69
2021/09/29 07:39:51;;;;;;;40.40;19.05;;;16.80;91.10;;;;;;4864252;29;20089;-69
2021/09/29 07:42:18;;;;;;;43.15;19.13;;;16.80;91.00;;;;;;4860544;29;20042;-69
2021/09/29 07:44:43;;;;;;;40.72;19.17;;;16.80;91.00;;;;;;4862091;29;20041;-68
2021/09/29 07:47:09;;;;;;;44.15;20.80;;;16.80;91.00;;;;;;4864036;29;20079;-68
2021/09/29 07:49:36;;;;;;;45.60;20.58;;;16.80;91.00;;;;;;4861101;29;20541;-68
2021/09/29 07:52:02;;;;;;;43.58;19.75;;;16.80;91.10;;;;;;4864053;29;20045;-68
2021/09/29 07:54:28;;;;;;;40.95;20.40;;;16.70;91.10;;;;;;4858375;29;20554;-67
2021/09/29 07:56:54;;;;;;;41.25;19.63;;;16.70;91.30;;;;;;4852705;29;20084;-67
2021/09/29 07:59:22;;;;;;;35.60;17.23;;;16.70;91.40;;;;;;4871895;29;20040;-68
2021/09/29 08:01:49;;;;;;;39.60;19.52;;;16.60;91.60;;;;;;4859968;29;20041;-68
2021/09/29 08:04:18;;;;;;;38.33;19.05;;;16.50;91.80;;;;;;4863880;29;20018;-67
2021/09/29 08:06:43;;;;;;;35.72;17.23;;;16.50;91.90;;;;;;4867039;29;20096;-67
2021/09/29 08:09:09;;;;;;;33.88;16.13;;;16.50;92.00;;;;;;4866172;29;20037;-72
2021/09/29 08:11:35;;;;;;;35.38;16.40;;;16.50;92.10;;;;;;4857132;29;20037;-67
2021/09/29 08:14:00;;;;;;;32.80;16.35;;;16.50;92.20;;;;;;4863334;29;20047;-68
2021/09/29 08:16:26;;;;;;;33.88;16.38;;;16.50;92.40;;;;;;4858276;29;20101;-67
2021/09/29 08:18:52;;;;;;;31.80;16.38;;;16.50;92.40;;;;;;4857370;29;20075;-67
2021/09/29 08:21:23;;;;;;;31.42;16.02;;;16.60;92.50;;;;;;4851591;29;20046;-67
2021/09/29 08:23:51;;;;;;;29.92;15.20;;;16.60;92.50;;;;;;4857632;29;20097;-67
2021/09/29 08:29:50;;;;;;;24.45;11.88;;;16.70;92.50;;;;;;4859628;29;20045;-67
2021/09/29 08:31:51;;;;;;;21.75;10.75;;;16.70;92.50;;;;;;4852775;29;20056;-67
2021/09/29 08:36:58;;;;;;;17.30;10.15;;;16.70;92.40;;;;;;4862475;29;20116;-66
2021/09/29 08:42:02;;;;;;;23.67;10.57;;;16.80;92.40;;;;;;4861096;29;20035;-67
2021/09/29 08:49:30;;;;;;;13.80;8.63;;;16.70;92.40;;;;;;4860916;29;20065;-68
2021/09/29 08:57:18;;;;;;;15.30;7.93;;;16.70;92.50;;;;;;4865465;29;20607;-67
2021/09/29 09:16:33;;;;;;;10.02;6.50;;;16.60;92.80;;;;;;4864902;29;20052;-67
2021/09/29 09:19:04;;;;;;;11.43;7.13;;;16.60;92.80;;;;;;4867206;29;20627;-67
2021/09/29 09:21:36;;;;;;;11.40;6.75;;;16.70;92.80;;;;;;4862079;29;20152;-67
2021/09/29 09:24:15;;;;;;;9.50;6.32;;;16.60;92.90;;;;;;4858918;29;20548;-67
2021/09/29 09:26:41;;;;;;;7.75;5.00;;;16.70;92.90;;;;;;4860873;29;20037;-67
2021/09/29 09:29:08;;;;;;;9.15;6.30;;;16.70;92.80;;;;;;4863491;29;20049;-68
2021/09/29 09:31:36;;;;;;;9.90;6.35;;;16.70;92.60;;;;;;4862605;29;20048;-67
2021/09/29 09:34:05;;;;;;;8.13;6.47;;;16.70;92.70;;;;;;4862856;29;20403;-65
2021/09/29 09:36:39;;;;;;;7.00;4.70;;;16.80;92.90;;;;;;4864196;29;20076;-67
2021/09/29 09:39:10;;;;;;;7.43;5.25;;;16.80;92.80;;;;;;4858128;29;20829;-67
2021/09/29 09:41:36;;;;;;;8.60;5.70;;;16.90;92.90;;;;;;4858271;29;20040;-67
2021/09/29 09:44:04;;;;;;;9.02;4.80;;;16.90;92.70;;;;;;4861461;29;20850;-68
2021/09/29 09:46:31;;;;;;;8.75;5.78;;;17.00;92.70;;;;;;4859435;29;20041;-67
2021/09/29 09:49:03;;;;;;;8.88;5.25;;;17.10;92.70;;;;;;4865573;29;20850;-67
2021/09/29 09:51:29;;;;;;;8.00;5.88;;;17.10;92.70;;;;;;4862007;29;20029;-67
2021/09/29 09:53:57;;;;;;;9.35;5.57;;;17.20;92.60;;;;;;4866094;29;20048;-67
2021/09/29 09:56:31;;;;;;;9.30;5.72;;;17.30;92.50;;;;;;4873234;29;20882;-67
2021/09/29 09:58:58;;;;;;;9.18;5.78;;;17.40;92.40;;;;;;4864244;29;20048;-68
2021/09/29 10:01:28;;;;;;;7.50;5.05;;;17.40;92.20;;;;;;4861241;29;20131;-68
2021/09/29 10:03:55;;;;;;;8.63;6.15;;;17.40;92.10;;;;;;4861377;29;20044;-69
2021/09/29 10:06:23;;;;;;;8.30;6.28;;;17.40;92.00;;;;;;4861034;29;20036;-68
2021/09/29 10:08:59;;;;;;;8.40;5.72;;;17.40;91.60;;;;;;4850571;29;20124;-68
2021/09/29 10:11:31;;;;;;;8.68;5.93;;;17.40;91.50;;;;;;4859995;29;20041;-68
2021/09/29 10:27:57;;;;;;;4.80;4.03;;;17.20;91.80;;;;;;4862702;29;20037;-69
2021/09/29 10:31:01;;;;;;;9.30;4.15;;;17.20;92.00;;;;;;4873345;29;20048;-68
2021/09/29 10:33:26;;;;;;;5.43;3.55;;;17.10;91.80;;;;;;4862269;29;20053;-68
2021/09/29 10:50:23;;;;;;;6.53;4.22;;;17.30;91.80;;;;;;4858235;29;20120;-68
2021/09/29 11:07:14;;;;;;;6.68;4.65;;;17.30;91.80;;;;;;4868287;29;20034;-69
2021/09/29 11:09:31;;;;;;;6.75;5.20;;;17.30;91.80;;;;;;4852346;29;20537;-68
2021/09/29 11:28:57;;;;;;;12.07;7.55;;;17.70;91.50;;;;;;4862634;29;20606;-69
2021/09/29 11:31:26;;;;;;;13.15;8.82;;;17.70;91.40;;;;;;4860572;29;20041;-69
2021/09/29 11:34:00;;;;;;;12.38;8.18;;;17.70;91.20;;;;;;4863274;29;20132;-69
2021/09/29 12:12:27;;;;;;;19.58;14.45;;;18.30;89.90;;;;;;4850917;29;20545;-68
2021/09/29 12:14:57;;;;;;;21.92;16.40;;;18.30;89.90;;;;;;4865461;29;20069;-67
2021/09/29 12:17:33;;;;;;;21.20;15.27;;;18.30;89.10;;;;;;4861587;29;20045;-67
2021/09/29 12:20:10;;;;;;;23.67;15.57;;;18.20;89.40;;;;;;4864204;29;20041;-68
2021/09/29 12:22:40;;;;;;;21.40;15.43;;;18.10;90.00;;;;;;4855537;29;20121;-69
2021/09/29 12:25:10;;;;;;;20.00;14.98;;;18.10;90.00;;;;;;4861536;29;20720;-68
2021/09/29 12:28:05;;;;;;;21.40;15.57;;;18.20;90.10;;;;;;4863399;29;20037;-68
2021/09/29 12:30:40;;;;;;;22.42;16.67;;;18.30;90.10;;;;;;4855320;29;20061;-68
2021/09/29 12:33:17;;;;;;;20.73;16.05;;;18.30;89.70;;;;;;4858558;29;20033;-68
2021/09/29 12:35:49;;;;;;;21.13;14.82;;;18.20;90.00;;;;;;4867466;29;20045;-68
2021/09/29 12:38:14;;;;;;;19.70;14.85;;;18.30;90.10;;;;;;4856328;29;20041;-68
2021/09/29 12:40:43;;;;;;;19.65;14.20;;;18.30;89.90;;;;;;4860385;29;20931;-68
2021/09/29 12:43:12;;;;;;;17.00;13.48;;;18.30;90.10;;;;;;4865963;29;20144;-67
2021/09/29 12:45:40;;;;;;;23.55;16.42;;;18.30;90.20;;;;;;4857816;29;20029;-67
2021/09/29 12:48:09;;;;;;;19.85;15.50;;;18.40;90.00;;;;;;4863572;29;21055;-67
2021/09/29 12:50:48;;;;;;;22.25;15.70;;;18.40;90.00;;;;;;4856631;29;20140;-67
2021/09/29 12:56:04;;;;;;;20.45;14.80;;;18.40;89.50;;;;;;4865294;29;20502;-67
2021/09/29 12:58:31;;;;;;;23.98;17.10;;;18.40;89.80;;;;;;4861548;29;20061;-69
2021/09/29 13:00:59;;;;;;;22.35;16.15;;;18.40;88.60;;;;;;4859658;29;20041;-68
2021/09/29 13:03:25;;;;;;;21.40;15.50;;;18.40;89.20;;;;;;4867195;29;20911;-68
2021/09/29 13:05:51;;;;;;;18.58;13.80;;;18.50;89.30;;;;;;4862359;29;20088;-68
2021/09/29 13:08:17;;;;;;;21.85;15.88;;;18.50;89.70;;;;;;4860214;29;20033;-68
2021/09/29 13:10:43;;;;;;;20.90;15.15;;;18.60;90.00;;;;;;4865932;29;20770;-68
2021/09/29 13:13:12;;;;;;;19.50;14.98;;;18.60;89.60;;;;;;4862285;29;20032;-68
2021/09/29 13:15:43;;;;;;;25.27;15.82;;;18.60;89.50;;;;;;4862662;29;20048;-68
2021/09/29 13:18:16;;;;;;;22.50;15.50;;;18.60;89.10;;;;;;4862962;29;20126;-68
2021/09/29 13:20:45;;;;;;;19.75;15.38;;;18.60;88.90;;;;;;4874472;29;20553;-68
2021/09/29 13:23:15;;;;;;;18.73;14.15;;;18.60;88.80;;;;;;4867016;29;20033;-68
2021/09/29 13:39:12;;;;;;;16.40;12.68;;;18.80;88.30;;;;;;4874685;29;20442;-68
2021/09/29 13:41:39;;;;;;;18.25;14.32;;;18.80;88.20;;;;;;4860062;29;20041;-68
2021/09/29 13:44:06;;;;;;;16.52;12.60;;;18.90;88.40;;;;;;4860307;29;20081;-68
2021/09/29 13:46:32;;;;;;;15.43;11.70;;;19.00;88.70;;;;;;4857432;29;20064;-68
2021/09/29 13:49:00;;;;;;;16.52;12.65;;;19.00;88.20;;;;;;4854874;29;20042;-68
2021/09/29 13:51:27;;;;;;;19.70;14.18;;;19.10;88.20;;;;;;4861374;29;20726;-68
2021/09/29 13:53:57;;;;;;;19.38;13.15;;;19.10;87.80;;;;;;4867150;29;20059;-68
2021/09/29 13:56:30;;;;;;;18.90;13.90;;;19.10;87.40;;;;;;4863878;29;20139;-68
2021/09/29 14:28:45;;;;;;;13.15;10.18;;;18.80;88.10;;;;;;4859349;29;20029;-68
2021/09/29 14:31:16;;;;;;;12.48;9.57;;;18.80;87.60;;;;;;4854715;29;20332;-68
2021/09/29 14:33:48;;;;;;;13.35;9.88;;;18.70;88.10;;;;;;4860032;29;20049;-68
2021/09/29 14:36:17;;;;;;;12.48;9.63;;;18.70;88.40;;;;;;4861095;29;20037;-68
2021/09/29 14:38:45;;;;;;;11.55;9.00;;;18.60;87.90;;;;;;4860438;29;20033;-69
2021/09/29 14:41:11;;;;;;;13.55;9.10;;;18.60;88.20;;;;;;4861039;29;20068;-69
2021/09/29 14:43:37;;;;;;;11.30;8.05;;;18.60;88.70;;;;;;4862859;29;20083;-69
2021/09/29 14:46:02;;;;;;;12.05;8.43;;;18.60;87.80;;;;;;4861686;29;20033;-68
2021/09/29 14:48:28;;;;;;;13.27;8.48;;;18.50;87.70;;;;;;4857864;29;20401;-67
2021/09/29 14:50:54;;;;;;;11.07;8.00;;;18.60;87.80;;;;;;4858228;29;20065;-67
2021/09/29 14:53:19;;;;;;;8.32;7.43;;;18.60;88.20;;;;;;4867444;29;20037;-67
2021/09/29 14:55:45;;;;;;;12.07;8.32;;;18.60;88.80;;;;;;4863091;29;20037;-67
2021/09/29 14:58:11;;;;;;;11.00;8.40;;;18.70;89.20;;;;;;4860580;29;20049;-67
2021/09/29 15:00:37;;;;;;;11.30;8.38;;;18.70;88.10;;;;;;4860811;29;20088;-67
2021/09/29 15:03:02;;;;;;;9.93;7.28;;;18.70;88.60;;;;;;4861257;29;20733;-67
2021/09/29 15:05:29;;;;;;;12.60;7.78;;;18.70;89.20;;;;;;4869051;29;20136;-68
2021/09/29 15:07:55;;;;;;;10.93;7.53;;;18.70;89.40;;;;;;4860009;29;20079;-67
2021/09/29 15:10:20;;;;;;;9.18;7.15;;;18.70;89.90;;;;;;4871473;29;20033;-67
2021/09/29 15:12:46;;;;;;;8.27;7.00;;;18.70;90.00;;;;;;4861050;29;20041;-67
2021/09/29 15:17:48;;;;;;;11.55;6.57;;;18.70;89.40;;;;;;4871684;29;20036;-67
2021/09/29 15:28:36;;;;;;;8.35;6.45;;;18.60;90.10;;;;;;4858591;29;20052;-67
2021/09/29 15:47:52;;;;;;;12.05;8.80;;;18.20;90.60;;;;;;4862758;29;20100;-68
2021/09/29 16:00:53;;;;;;;20.00;13.48;;;17.80;90.90;;;;;;4862948;29;20382;-68
2021/09/29 16:11:24;;;;;;;7.15;5.80;;;17.60;91.40;;;;;;4858401;29;20041;-67
2021/09/29 16:14:10;;;;;;;8.07;5.50;;;17.60;91.40;;;;;;4862451;29;20028;-67
2021/09/29 16:16:46;;;;;;;7.80;5.63;;;17.50;91.30;;;;;;4859462;29;20626;-67
2021/09/29 16:30:14;;;;;;;6.38;5.10;;;17.20;91.20;;;;;;4875224;29;20049;-67
2021/09/29 16:32:55;;;;;;;5.38;4.80;;;17.10;91.30;;;;;;4864351;29;20119;-68